createdAt,value
2023-05-31T00:00:33.111Z,2627.00
2023-05-31T00:01:33.106Z,2627.00
2023-05-31T00:02:33.136Z,2622.00
2023-05-31T00:03:33.143Z,2627.00
2023-05-31T00:04:33.079Z,2623.00
2023-05-31T00:05:33.077Z,2622.00
2023-05-31T00:06:33.070Z,2618.00
2023-05-31T00:07:33.066Z,2620.00
2023-05-31T00:08:33.040Z,2607.00
2023-05-31T00:09:33.051Z,2617.00
2023-05-31T00:10:33.047Z,2601.00
2023-05-31T00:11:33.039Z,2606.00
2023-05-31T00:12:33.078Z,2599.00
2023-05-31T00:13:33.141Z,2602.00
2023-05-31T00:14:33.182Z,2595.00
2023-05-31T00:15:33.219Z,2609.00
2023-05-31T00:17:07.114Z,2605.00
2023-05-31T00:17:50.123Z,2606.00
2023-05-31T00:18:34.287Z,2606.00
2023-05-31T00:19:33.237Z,2612.00
2023-05-31T00:20:33.289Z,2612.00
2023-05-31T00:21:33.239Z,2617.00
2023-05-31T00:22:33.222Z,2607.00
2023-05-31T00:23:33.205Z,2610.00
2023-05-31T00:24:33.197Z,2607.00
2023-05-31T00:25:33.192Z,2608.00
2023-05-31T00:26:33.187Z,2604.00
2023-05-31T00:27:33.178Z,2613.00
2023-05-31T00:28:33.213Z,2607.00
2023-05-31T00:29:33.158Z,2608.00
2023-05-31T00:30:33.279Z,2600.00
2023-05-31T00:31:33.160Z,2601.00
2023-05-31T00:32:33.160Z,2602.00
2023-05-31T00:33:33.129Z,2601.00
2023-05-31T00:34:33.135Z,2599.00
2023-05-31T00:35:33.124Z,2604.00
2023-05-31T00:36:33.135Z,2610.00
2023-05-31T00:37:33.117Z,2589.00
2023-05-31T00:38:33.115Z,2600.00
2023-05-31T00:39:33.118Z,2589.00
2023-05-31T00:40:33.107Z,2587.00
2023-05-31T00:41:33.112Z,2591.00
2023-05-31T00:42:33.146Z,2591.00
2023-05-31T00:43:33.196Z,2585.00
2023-05-31T00:44:33.245Z,2586.00
2023-05-31T00:45:33.321Z,2580.00
2023-05-31T00:46:33.372Z,2577.00
2023-05-31T00:47:33.467Z,2577.00
2023-05-31T00:48:33.512Z,2571.00
2023-05-31T00:49:33.523Z,2574.00
2023-05-31T00:50:33.560Z,2565.00
2023-05-31T00:51:33.628Z,2576.00
2023-05-31T00:52:33.662Z,2547.00
2023-05-31T00:53:33.736Z,2571.00
2023-05-31T00:54:33.775Z,2554.00
2023-05-31T00:55:33.841Z,2560.00
2023-05-31T00:56:33.887Z,2558.00
2023-05-31T00:57:33.947Z,2554.00
2023-05-31T00:58:33.995Z,2548.00
2023-05-31T00:59:34.056Z,2554.00
2023-05-31T01:00:34.112Z,2561.00
2023-05-31T01:01:34.722Z,2555.00
2023-05-31T01:02:34.316Z,2542.00
2023-05-31T01:03:34.274Z,2551.00
2023-05-31T01:04:34.344Z,2553.00
2023-05-31T01:05:34.390Z,2540.00
2023-05-31T01:06:34.410Z,2541.00
2023-05-31T01:07:34.386Z,2543.00
2023-05-31T01:08:34.370Z,2542.00
2023-05-31T01:09:34.379Z,2546.00
2023-05-31T01:10:34.376Z,2549.00
2023-05-31T01:11:34.402Z,2558.00
2023-05-31T01:12:34.379Z,2554.00
2023-05-31T01:13:34.380Z,2538.00
2023-05-31T01:14:34.399Z,2523.00
2023-05-31T01:15:34.392Z,2531.00
2023-05-31T01:16:34.508Z,2542.00
2023-05-31T01:17:34.487Z,2541.00
2023-05-31T01:18:34.530Z,2546.00
2023-05-31T01:19:34.597Z,2534.00
2023-05-31T01:20:34.726Z,2535.00
2023-05-31T01:21:34.715Z,2541.00
2023-05-31T01:22:34.797Z,2528.00
2023-05-31T01:23:37.469Z,2512.00
2023-05-31T01:24:34.876Z,2532.00
2023-05-31T01:25:34.841Z,2533.00
2023-05-31T01:26:34.848Z,2534.00
2023-05-31T01:27:34.842Z,2533.00
2023-05-31T01:28:34.826Z,2537.00
2023-05-31T01:29:34.825Z,2536.00
2023-05-31T01:30:34.812Z,2526.00
2023-05-31T01:31:34.880Z,2509.00
2023-05-31T01:32:34.825Z,2521.00
2023-05-31T01:33:34.787Z,2531.00
2023-05-31T01:34:34.856Z,2516.00
2023-05-31T01:35:34.916Z,2517.00
2023-05-31T01:36:34.959Z,2520.00
2023-05-31T01:37:35.008Z,2516.00
2023-05-31T01:38:35.064Z,2512.00
2023-05-31T01:39:35.151Z,2512.00
2023-05-31T01:40:35.191Z,2496.00
2023-05-31T01:41:35.280Z,2501.00
2023-05-31T01:42:35.334Z,2507.00
2023-05-31T01:43:35.395Z,2504.00
2023-05-31T01:44:35.453Z,2511.00
2023-05-31T01:45:35.556Z,2492.00
2023-05-31T01:46:35.569Z,2497.00
2023-05-31T01:47:35.660Z,2478.00
2023-05-31T01:48:35.708Z,2495.00
2023-05-31T01:49:35.752Z,2489.00
2023-05-31T01:50:35.791Z,2479.00
2023-05-31T01:51:35.818Z,2474.00
2023-05-31T01:52:35.851Z,2470.00
2023-05-31T01:53:35.895Z,2481.00
2023-05-31T01:54:35.958Z,2475.00
2023-05-31T01:55:35.996Z,2470.00
2023-05-31T01:56:35.993Z,2471.00
2023-05-31T01:57:35.984Z,2473.00
2023-05-31T01:58:35.969Z,2468.00
2023-05-31T01:59:35.964Z,2482.00
2023-05-31T02:00:35.964Z,2471.00
2023-05-31T02:01:36.033Z,2475.00
2023-05-31T02:02:35.971Z,2473.00
2023-05-31T02:03:35.993Z,2479.00
2023-05-31T02:04:35.926Z,2480.00
2023-05-31T02:05:36.018Z,2475.00
2023-05-31T02:06:36.068Z,2476.00
2023-05-31T02:07:36.128Z,2470.00
2023-05-31T02:08:36.185Z,2465.00
2023-05-31T02:09:36.266Z,2457.00
2023-05-31T02:10:36.293Z,2466.00
2023-05-31T02:11:36.374Z,2453.00
2023-05-31T02:12:36.397Z,2456.00
2023-05-31T02:13:36.477Z,2459.00
2023-05-31T02:14:36.501Z,2446.00
2023-05-31T02:15:36.565Z,2449.00
2023-05-31T02:16:36.639Z,2454.00
2023-05-31T02:17:36.678Z,2456.00
2023-05-31T02:18:36.673Z,2436.00
2023-05-31T02:19:36.682Z,2432.00
2023-05-31T02:21:55.554Z,500.00
2023-05-31T02:22:55.559Z,500.00
2023-05-31T02:23:55.527Z,500.00
2023-05-31T02:24:55.501Z,500.00
2023-05-31T02:25:55.555Z,500.00
2023-05-31T02:26:55.455Z,506.00
2023-05-31T02:27:55.440Z,500.00
2023-05-31T02:28:55.416Z,501.00
2023-05-31T02:29:55.395Z,501.00
2023-05-31T02:30:55.429Z,507.00
2023-05-31T02:31:55.478Z,502.00
2023-05-31T02:32:55.365Z,500.00
2023-05-31T02:33:55.329Z,501.00
2023-05-31T02:34:55.325Z,503.00
2023-05-31T02:35:55.300Z,502.00
2023-05-31T02:36:55.278Z,505.00
2023-05-31T02:37:55.268Z,508.00
2023-05-31T02:38:55.240Z,504.00
2023-05-31T02:39:55.230Z,508.00
2023-05-31T02:40:55.229Z,506.00
2023-05-31T02:41:55.197Z,500.00
2023-05-31T02:42:55.163Z,502.00
2023-05-31T02:43:55.138Z,509.00
2023-05-31T02:44:55.105Z,509.00
2023-05-31T02:45:55.073Z,508.00
2023-05-31T02:46:55.166Z,510.00
2023-05-31T02:47:55.045Z,510.00
2023-05-31T02:48:54.988Z,506.00
2023-05-31T02:49:54.964Z,502.00
2023-05-31T02:50:54.941Z,512.00
2023-05-31T02:51:54.917Z,505.00
2023-05-31T02:52:54.885Z,511.00
2023-05-31T02:53:54.872Z,510.00
2023-05-31T02:54:54.865Z,508.00
2023-05-31T02:55:54.848Z,508.00
2023-05-31T02:56:54.852Z,504.00
2023-05-31T02:57:54.818Z,507.00
2023-05-31T02:58:54.863Z,510.00
2023-05-31T02:59:54.923Z,504.00
2023-05-31T03:00:54.901Z,505.00
2023-05-31T03:01:54.905Z,506.00
2023-05-31T03:02:55.002Z,505.00
2023-05-31T03:03:54.915Z,506.00
2023-05-31T03:04:54.878Z,506.00
2023-05-31T03:05:54.843Z,508.00
2023-05-31T03:06:54.842Z,511.00
2023-05-31T03:07:54.840Z,511.00
2023-05-31T03:08:54.862Z,503.00
2023-05-31T03:09:54.851Z,503.00
2023-05-31T03:10:54.820Z,505.00
2023-05-31T03:11:54.806Z,505.00
2023-05-31T03:12:54.794Z,507.00
2023-05-31T03:13:54.753Z,504.00
2023-05-31T03:14:54.722Z,505.00
2023-05-31T03:15:54.703Z,504.00
2023-05-31T03:16:54.673Z,507.00
2023-05-31T03:17:54.691Z,504.00
2023-05-31T03:18:54.622Z,505.00
2023-05-31T03:19:54.625Z,505.00
2023-05-31T03:20:54.630Z,507.00
2023-05-31T03:21:54.608Z,506.00
2023-05-31T03:22:54.570Z,508.00
2023-05-31T03:23:54.544Z,506.00
2023-05-31T03:24:54.514Z,505.00
2023-05-31T03:25:54.507Z,509.00
2023-05-31T03:26:54.475Z,510.00
2023-05-31T03:27:54.452Z,504.00
2023-05-31T03:28:54.465Z,504.00
2023-05-31T03:29:54.488Z,500.00
2023-05-31T03:30:54.522Z,507.00
2023-05-31T03:31:54.558Z,501.00
2023-05-31T03:32:54.619Z,507.00
2023-05-31T03:33:54.611Z,502.00
2023-05-31T03:34:54.648Z,511.00
2023-05-31T03:35:54.666Z,505.00
2023-05-31T03:36:54.717Z,503.00
2023-05-31T03:37:54.732Z,511.00
2023-05-31T03:38:54.753Z,504.00
2023-05-31T03:39:54.742Z,509.00
2023-05-31T03:40:54.732Z,508.00
2023-05-31T03:41:54.771Z,518.00
2023-05-31T03:42:54.781Z,507.00
2023-05-31T03:43:54.797Z,505.00
2023-05-31T03:44:54.789Z,508.00
2023-05-31T03:45:54.878Z,503.00
2023-05-31T03:46:54.871Z,502.00
2023-05-31T03:47:54.939Z,501.00
2023-05-31T03:48:55.969Z,511.00
2023-05-31T03:49:54.982Z,502.00
2023-05-31T03:50:54.952Z,502.00
2023-05-31T03:51:54.947Z,504.00
2023-05-31T03:52:54.921Z,506.00
2023-05-31T03:53:54.897Z,510.00
2023-05-31T03:54:54.868Z,504.00
2023-05-31T03:55:54.854Z,504.00
2023-05-31T03:56:54.828Z,507.00
2023-05-31T03:57:54.816Z,500.00
2023-05-31T03:58:54.783Z,505.00
2023-05-31T03:59:54.791Z,508.00
2023-05-31T04:00:54.774Z,506.00
2023-05-31T04:01:54.744Z,505.00
2023-05-31T04:03:04.328Z,505.00
2023-05-31T04:03:55.861Z,506.00
2023-05-31T04:04:54.759Z,508.00
2023-05-31T04:05:54.669Z,507.00
2023-05-31T04:06:54.697Z,506.00
2023-05-31T04:07:54.635Z,507.00
2023-05-31T04:08:54.604Z,506.00
2023-05-31T04:09:54.608Z,508.00
2023-05-31T04:10:54.559Z,504.00
2023-05-31T04:11:54.547Z,500.00
2023-05-31T04:12:54.526Z,506.00
2023-05-31T04:13:54.553Z,507.00
2023-05-31T04:14:54.494Z,509.00
2023-05-31T04:15:54.515Z,506.00
2023-05-31T04:16:54.443Z,501.00
2023-05-31T04:17:54.447Z,506.00
2023-05-31T04:18:54.462Z,509.00
2023-05-31T04:19:54.490Z,503.00
2023-05-31T04:20:54.587Z,504.00
2023-05-31T04:21:54.591Z,502.00
2023-05-31T04:22:54.679Z,511.00
2023-05-31T04:23:54.655Z,504.00
2023-05-31T04:24:54.680Z,512.00
2023-05-31T04:25:54.709Z,510.00
2023-05-31T04:26:54.746Z,504.00
2023-05-31T04:27:54.770Z,511.00
2023-05-31T04:28:54.846Z,509.00
2023-05-31T04:29:54.787Z,512.00
2023-05-31T04:30:54.841Z,504.00
2023-05-31T04:31:54.785Z,511.00
2023-05-31T04:32:54.750Z,504.00
2023-05-31T04:33:54.730Z,507.00
2023-05-31T04:34:54.716Z,508.00
2023-05-31T04:35:54.713Z,510.00
2023-05-31T04:36:54.695Z,504.00
2023-05-31T04:37:54.708Z,508.00
2023-05-31T04:38:54.698Z,504.00
2023-05-31T04:39:54.709Z,510.00
2023-05-31T04:40:54.700Z,507.00
2023-05-31T04:41:54.689Z,500.00
2023-05-31T04:42:54.694Z,507.00
2023-05-31T04:43:54.715Z,510.00
2023-05-31T04:44:54.703Z,510.00
2023-05-31T04:45:54.759Z,509.00
2023-05-31T04:46:54.677Z,511.00
2023-05-31T04:47:54.696Z,509.00
2023-05-31T04:48:54.645Z,514.00
2023-05-31T04:49:55.342Z,505.00
2023-05-31T04:50:54.600Z,511.00
2023-05-31T04:51:54.588Z,506.00
2023-05-31T04:52:54.568Z,513.00
2023-05-31T04:53:54.554Z,509.00
2023-05-31T04:54:54.543Z,510.00
2023-05-31T04:55:54.532Z,514.00
2023-05-31T04:56:54.507Z,505.00
2023-05-31T04:57:55.303Z,504.00
2023-05-31T04:58:54.471Z,504.00
2023-05-31T04:59:54.452Z,504.00
2023-05-31T05:00:54.465Z,511.00
2023-05-31T05:01:54.480Z,510.00
2023-05-31T05:02:54.552Z,509.00
2023-05-31T05:03:54.754Z,511.00
2023-05-31T05:04:54.507Z,511.00
2023-05-31T05:05:54.479Z,511.00
2023-05-31T05:06:54.478Z,509.00
2023-05-31T05:07:54.436Z,511.00
2023-05-31T05:08:54.412Z,509.00
2023-05-31T05:09:54.393Z,510.00
2023-05-31T05:10:54.395Z,503.00
2023-05-31T05:11:54.414Z,510.00
2023-05-31T05:12:54.324Z,515.00
2023-05-31T05:13:54.682Z,508.00
2023-05-31T05:14:54.294Z,514.00
2023-05-31T05:15:54.274Z,511.00
2023-05-31T05:16:54.330Z,515.00
2023-05-31T05:17:54.322Z,503.00
2023-05-31T05:18:54.236Z,508.00
2023-05-31T05:19:54.229Z,509.00
2023-05-31T05:20:54.243Z,506.00
2023-05-31T05:21:54.191Z,511.00
2023-05-31T05:22:54.193Z,510.00
2023-05-31T05:23:54.162Z,508.00
2023-05-31T05:24:54.193Z,514.00
2023-05-31T05:25:54.232Z,505.00
2023-05-31T05:26:54.270Z,508.00
2023-05-31T05:27:54.292Z,510.00
2023-05-31T05:28:54.288Z,510.00
2023-05-31T05:29:54.281Z,504.00
2023-05-31T05:30:54.331Z,502.00
2023-05-31T05:31:54.259Z,500.00
2023-05-31T05:32:54.279Z,506.00
2023-05-31T05:33:54.283Z,507.00
2023-05-31T05:34:54.241Z,507.00
2023-05-31T05:35:54.215Z,509.00
2023-05-31T05:36:54.245Z,512.00
2023-05-31T05:37:54.216Z,527.00
2023-05-31T05:38:54.174Z,507.00
2023-05-31T05:39:54.153Z,513.00
2023-05-31T05:40:54.209Z,523.00
2023-05-31T05:41:54.134Z,542.00
2023-05-31T05:42:54.106Z,569.00
2023-05-31T05:43:54.083Z,586.00
2023-05-31T05:44:54.128Z,607.00
2023-05-31T05:45:54.037Z,629.00
2023-05-31T05:46:54.219Z,641.00
2023-05-31T05:47:54.225Z,653.00
2023-05-31T05:48:54.412Z,705.00
2023-05-31T05:49:54.252Z,787.00
2023-05-31T05:50:54.271Z,873.00
2023-05-31T05:51:54.306Z,930.00
2023-05-31T05:52:54.478Z,950.00
2023-05-31T05:53:54.372Z,1009.00
2023-05-31T05:54:54.417Z,1063.00
2023-05-31T05:55:54.416Z,1099.00
2023-05-31T05:56:54.443Z,1136.00
2023-05-31T05:57:54.504Z,1196.00
2023-05-31T05:58:54.496Z,1255.00
2023-05-31T05:59:54.525Z,1301.00
2023-05-31T06:00:54.702Z,1343.00
2023-05-31T06:01:54.633Z,1393.00
2023-05-31T06:02:54.768Z,1435.00
2023-05-31T06:03:54.792Z,1508.00
2023-05-31T06:04:54.737Z,1510.00
2023-05-31T06:05:54.862Z,1512.00
2023-05-31T06:06:54.699Z,1522.00
2023-05-31T06:07:54.700Z,1547.00
2023-05-31T06:08:54.633Z,1600.00
2023-05-31T06:09:54.610Z,1701.00
2023-05-31T06:10:54.585Z,1724.00
2023-05-31T06:11:54.606Z,1747.00
2023-05-31T06:12:54.545Z,1775.00
2023-05-31T06:13:54.518Z,1808.00
2023-05-31T06:14:55.761Z,1814.00
2023-05-31T06:15:54.474Z,1827.00
2023-05-31T06:16:54.667Z,1824.00
2023-05-31T06:17:54.438Z,2056.00
2023-05-31T06:18:54.456Z,2069.00
2023-05-31T06:19:54.478Z,2059.00
2023-05-31T06:20:54.623Z,2092.00
2023-05-31T06:21:54.535Z,2124.00
2023-05-31T06:22:54.528Z,2088.00
2023-05-31T06:23:54.533Z,2044.00
2023-05-31T06:24:54.557Z,2031.00
2023-05-31T06:25:54.558Z,2015.00
2023-05-31T06:26:54.568Z,2005.00
2023-05-31T06:27:54.596Z,1990.00
2023-05-31T06:28:54.584Z,1987.00
2023-05-31T06:29:54.530Z,1991.00
2023-05-31T06:30:54.497Z,2037.00
2023-05-31T06:31:54.668Z,2124.00
2023-05-31T06:32:54.505Z,2222.00
2023-05-31T06:33:54.404Z,2294.00
2023-05-31T06:34:54.376Z,2249.00
2023-05-31T06:35:54.348Z,2187.00
2023-05-31T06:36:54.350Z,2138.00
2023-05-31T06:37:54.317Z,2116.00
2023-05-31T06:38:54.265Z,2108.00
2023-05-31T06:39:54.256Z,2131.00
2023-05-31T06:40:54.226Z,2080.00
2023-05-31T06:41:54.223Z,2081.00
2023-05-31T06:42:54.181Z,2080.00
2023-05-31T06:43:54.145Z,2065.00
2023-05-31T06:44:56.705Z,2062.00
2023-05-31T06:45:54.091Z,2069.00
2023-05-31T06:46:54.136Z,2028.00
2023-05-31T06:47:54.033Z,2010.00
2023-05-31T06:49:00.681Z,2006.00
2023-05-31T06:49:54.970Z,2007.00
2023-05-31T06:50:53.958Z,2001.00
2023-05-31T06:51:53.936Z,1981.00
2023-05-31T06:52:53.931Z,1956.00
2023-05-31T06:53:53.856Z,1969.00
2023-05-31T06:54:53.821Z,1937.00
2023-05-31T06:55:53.797Z,1912.00
2023-05-31T06:56:53.802Z,1890.00
2023-05-31T06:57:54.782Z,1847.00
2023-05-31T06:58:53.738Z,1818.00
2023-05-31T06:59:53.726Z,1807.00
2023-05-31T07:00:53.738Z,1782.00
2023-05-31T07:01:53.771Z,1746.00
2023-05-31T07:02:53.653Z,1715.00
2023-05-31T07:03:53.658Z,1667.00
2023-05-31T07:04:53.597Z,1623.00
2023-05-31T07:05:53.569Z,1559.00
2023-05-31T07:06:53.573Z,1479.00
2023-05-31T07:07:53.518Z,1438.00
2023-05-31T07:08:53.516Z,1419.00
2023-05-31T07:09:53.514Z,1389.00
2023-05-31T07:10:53.475Z,1367.00
2023-05-31T07:11:53.429Z,1327.00
2023-05-31T07:12:53.411Z,1325.00
2023-05-31T07:13:53.375Z,1274.00
2023-05-31T07:14:53.327Z,1239.00
2023-05-31T07:15:53.356Z,1228.00
2023-05-31T07:16:53.313Z,1216.00
2023-05-31T07:17:53.288Z,1180.00
2023-05-31T07:18:53.248Z,1118.00
2023-05-31T07:19:53.224Z,1119.00
2023-05-31T07:20:53.221Z,1065.00
2023-05-31T07:21:53.164Z,1019.00
2023-05-31T07:22:53.167Z,977.00
2023-05-31T07:23:53.100Z,895.00
2023-05-31T07:24:53.092Z,868.00
2023-05-31T07:25:53.068Z,805.00
2023-05-31T07:26:53.036Z,767.00
2023-05-31T07:27:52.997Z,734.00
2023-05-31T07:28:52.967Z,716.00
2023-05-31T07:29:52.934Z,683.00
2023-05-31T07:30:52.905Z,672.00
2023-05-31T07:31:52.874Z,659.00
2023-05-31T07:32:52.970Z,653.00
2023-05-31T07:33:52.867Z,638.00
2023-05-31T07:35:03.332Z,632.00
2023-05-31T07:35:58.343Z,632.00
2023-05-31T07:36:53.736Z,631.00
2023-05-31T07:37:52.708Z,625.00
2023-05-31T07:38:52.671Z,623.00
2023-05-31T07:39:52.651Z,607.00
2023-05-31T07:40:52.713Z,585.00
2023-05-31T07:41:52.578Z,597.00
2023-05-31T07:42:52.544Z,581.00
2023-05-31T07:43:52.560Z,565.00
2023-05-31T07:44:52.562Z,572.00
2023-05-31T07:45:52.477Z,574.00
2023-05-31T07:46:52.463Z,573.00
2023-05-31T07:47:52.445Z,569.00
2023-05-31T07:48:52.412Z,556.00
2023-05-31T07:49:52.382Z,556.00
2023-05-31T07:50:52.317Z,550.00
2023-05-31T07:51:52.331Z,560.00
2023-05-31T07:52:52.315Z,566.00
2023-05-31T07:53:52.279Z,554.00
2023-05-31T07:54:52.219Z,549.00
2023-05-31T07:55:52.228Z,552.00
2023-05-31T07:56:52.192Z,557.00
2023-05-31T07:57:52.167Z,543.00
2023-05-31T07:58:52.258Z,541.00
2023-05-31T07:59:52.066Z,546.00
2023-05-31T08:00:52.102Z,538.00
2023-05-31T08:01:52.149Z,539.00
2023-05-31T08:02:52.036Z,538.00
2023-05-31T08:03:52.003Z,528.00
2023-05-31T08:04:51.957Z,515.00
2023-05-31T08:05:52.567Z,514.00
2023-05-31T08:06:51.916Z,520.00
2023-05-31T08:07:52.422Z,506.00
2023-05-31T08:08:51.815Z,509.00
2023-05-31T08:09:51.835Z,500.00
2023-05-31T08:10:51.810Z,506.00
2023-05-31T08:11:51.814Z,498.00
2023-05-31T08:12:51.778Z,499.00
2023-05-31T08:13:51.739Z,499.00
2023-05-31T08:14:51.714Z,500.00
2023-05-31T08:15:51.679Z,481.00
2023-05-31T08:16:51.710Z,475.00
2023-05-31T08:17:51.678Z,470.00
2023-05-31T08:18:51.606Z,473.00
2023-05-31T08:19:51.582Z,503.00
2023-05-31T08:20:51.581Z,510.00
2023-05-31T08:21:51.573Z,512.00
2023-05-31T08:22:51.493Z,503.00
2023-05-31T08:23:51.450Z,501.00
2023-05-31T08:24:51.432Z,478.00
2023-05-31T08:25:51.420Z,473.00
2023-05-31T08:26:51.397Z,454.00
2023-05-31T08:27:51.334Z,438.00
2023-05-31T08:28:51.323Z,485.00
2023-05-31T08:29:51.277Z,506.00
2023-05-31T08:30:51.290Z,500.00
2023-05-31T08:31:51.237Z,501.00
2023-05-31T08:32:51.231Z,503.00
2023-05-31T08:33:51.289Z,504.00
2023-05-31T08:34:51.153Z,524.00
2023-05-31T08:35:51.116Z,548.00
2023-05-31T08:36:51.085Z,601.00
2023-05-31T08:37:51.052Z,625.00
2023-05-31T08:38:51.025Z,644.00
2023-05-31T08:39:50.992Z,661.00
2023-05-31T08:40:50.960Z,662.00
2023-05-31T08:41:50.927Z,671.00
2023-05-31T08:42:50.893Z,714.00
2023-05-31T08:43:50.905Z,820.00
2023-05-31T08:44:50.835Z,949.00
2023-05-31T08:45:50.840Z,989.00
2023-05-31T08:46:50.864Z,985.00
2023-05-31T08:47:50.782Z,977.00
2023-05-31T08:48:50.702Z,978.00
2023-05-31T08:49:50.680Z,980.00
2023-05-31T08:50:53.352Z,948.00
2023-05-31T08:51:50.639Z,888.00
2023-05-31T08:52:50.609Z,832.00
2023-05-31T08:53:50.568Z,773.00
2023-05-31T08:54:50.541Z,741.00
2023-05-31T08:55:50.510Z,684.00
2023-05-31T08:56:50.485Z,663.00
2023-05-31T08:57:50.446Z,653.00
2023-05-31T08:58:50.408Z,653.00
2023-05-31T08:59:50.381Z,645.00
2023-05-31T09:00:50.381Z,625.00
2023-05-31T09:01:50.373Z,611.00
2023-05-31T09:02:50.301Z,618.00
2023-05-31T09:03:50.284Z,609.00
2023-05-31T09:04:50.265Z,611.00
2023-05-31T09:05:50.192Z,606.00
2023-05-31T09:06:50.162Z,599.00
2023-05-31T09:07:50.146Z,585.00
2023-05-31T09:08:50.157Z,569.00
2023-05-31T09:09:50.056Z,550.00
2023-05-31T09:10:50.057Z,548.00
2023-05-31T09:11:50.085Z,543.00
2023-05-31T09:12:50.115Z,552.00
2023-05-31T09:13:50.137Z,541.00
2023-05-31T09:14:50.222Z,531.00
2023-05-31T09:15:50.213Z,524.00
2023-05-31T09:16:50.306Z,524.00
2023-05-31T09:17:50.218Z,522.00
2023-05-31T09:18:50.109Z,519.00
2023-05-31T09:19:50.098Z,521.00
2023-05-31T09:20:50.123Z,512.00
2023-05-31T09:21:50.024Z,509.00
2023-05-31T09:22:49.987Z,513.00
2023-05-31T09:23:49.953Z,504.00
2023-05-31T09:24:49.980Z,502.00
2023-05-31T09:25:50.014Z,508.00
2023-05-31T09:26:50.060Z,500.00
2023-05-31T09:27:50.095Z,503.00
2023-05-31T09:28:50.088Z,501.00
2023-05-31T09:29:50.151Z,512.00
2023-05-31T09:30:50.221Z,509.00
2023-05-31T09:31:50.205Z,509.00
2023-05-31T09:32:50.117Z,510.00
2023-05-31T09:33:50.095Z,503.00
2023-05-31T09:34:50.047Z,491.00
2023-05-31T09:35:50.045Z,480.00
2023-05-31T09:36:50.002Z,506.00
2023-05-31T09:37:50.017Z,502.00
2023-05-31T09:38:50.001Z,503.00
2023-05-31T09:39:50.042Z,498.00
2023-05-31T09:40:50.035Z,499.00
2023-05-31T09:41:50.075Z,516.00
2023-05-31T09:42:50.049Z,518.00
2023-05-31T09:43:49.995Z,527.00
2023-05-31T09:44:50.093Z,520.00
2023-05-31T09:45:49.980Z,521.00
2023-05-31T09:46:49.918Z,537.00
2023-05-31T09:47:49.914Z,577.00
2023-05-31T09:48:49.851Z,644.00
2023-05-31T09:49:49.827Z,922.00
2023-05-31T09:50:49.788Z,1018.00
2023-05-31T09:51:49.788Z,1119.00
2023-05-31T09:52:49.726Z,1210.00
2023-05-31T09:53:49.718Z,1298.00
2023-05-31T09:54:49.738Z,1375.00
2023-05-31T09:55:49.756Z,1437.00
2023-05-31T09:56:49.756Z,1494.00
2023-05-31T09:57:49.727Z,1572.00
2023-05-31T09:58:49.765Z,1602.00
2023-05-31T09:59:49.762Z,1643.00
2023-05-31T10:00:49.770Z,1683.00
2023-05-31T10:01:49.895Z,1758.00
2023-05-31T10:02:49.859Z,1791.00
2023-05-31T10:03:49.768Z,1860.00
2023-05-31T10:04:49.810Z,1912.00
2023-05-31T10:05:49.776Z,1919.00
2023-05-31T10:06:49.779Z,1925.00
2023-05-31T10:07:49.913Z,1961.00
2023-05-31T10:08:49.741Z,1977.00
2023-05-31T10:09:49.751Z,1985.00
2023-05-31T10:10:49.735Z,1979.00
2023-05-31T10:11:49.733Z,1998.00
2023-05-31T10:12:49.682Z,2033.00
2023-05-31T10:13:49.673Z,2070.00
2023-05-31T10:14:49.652Z,2075.00
2023-05-31T10:15:49.707Z,2102.00
2023-05-31T10:16:50.455Z,2105.00
2023-05-31T10:17:49.619Z,2106.00
2023-05-31T10:18:49.554Z,2099.00
2023-05-31T10:19:49.525Z,2092.00
2023-05-31T10:20:49.571Z,2076.00
2023-05-31T10:21:49.474Z,2047.00
2023-05-31T10:22:49.389Z,2015.00
2023-05-31T10:23:49.368Z,1961.00
2023-05-31T10:24:49.897Z,1940.00
2023-05-31T10:25:49.267Z,1941.00
2023-05-31T10:26:49.233Z,1939.00
2023-05-31T10:27:49.200Z,1967.00
2023-05-31T10:28:49.165Z,1968.00
2023-05-31T10:29:49.133Z,1963.00
2023-05-31T10:30:49.126Z,1930.00
2023-05-31T10:31:49.103Z,1897.00
2023-05-31T10:32:49.047Z,1852.00
2023-05-31T10:33:49.006Z,1821.00
2023-05-31T10:34:48.970Z,1824.00
2023-05-31T10:35:49.890Z,1789.00
2023-05-31T10:36:48.904Z,1817.00
2023-05-31T10:37:48.869Z,1822.00
2023-05-31T10:38:48.842Z,1856.00
2023-05-31T10:39:48.774Z,1950.00
2023-05-31T10:40:48.765Z,2037.00
2023-05-31T10:41:48.743Z,2092.00
2023-05-31T10:42:48.674Z,2012.00
2023-05-31T10:43:48.697Z,1965.00
2023-05-31T10:44:48.576Z,1904.00
2023-05-31T10:45:48.543Z,1846.00
2023-05-31T10:46:48.563Z,1782.00
2023-05-31T10:47:48.516Z,1687.00
2023-05-31T10:48:48.392Z,1637.00
2023-05-31T10:49:48.408Z,1545.00
2023-05-31T10:50:48.329Z,1484.00
2023-05-31T10:51:48.299Z,1425.00
2023-05-31T10:52:48.274Z,1363.00
2023-05-31T10:53:48.226Z,1305.00
2023-05-31T10:54:48.186Z,1231.00
2023-05-31T10:55:48.220Z,1154.00
2023-05-31T10:56:48.107Z,1178.00
2023-05-31T10:57:48.133Z,1148.00
2023-05-31T10:58:48.042Z,1089.00
2023-05-31T10:59:48.025Z,994.00
2023-05-31T11:00:48.001Z,959.00
2023-05-31T11:01:47.972Z,958.00
2023-05-31T11:02:48.005Z,928.00
2023-05-31T11:03:48.028Z,893.00
2023-05-31T11:04:47.865Z,898.00
2023-05-31T11:05:47.834Z,901.00
2023-05-31T11:06:47.804Z,905.00
2023-05-31T11:07:47.774Z,883.00
2023-05-31T11:08:47.736Z,855.00
2023-05-31T11:09:47.703Z,856.00
2023-05-31T11:10:47.699Z,839.00
2023-05-31T11:11:47.770Z,833.00
2023-05-31T11:12:47.736Z,839.00
2023-05-31T11:13:47.762Z,819.00
2023-05-31T11:14:47.807Z,788.00
2023-05-31T11:15:47.800Z,791.00
2023-05-31T11:16:47.824Z,764.00
2023-05-31T11:17:47.852Z,760.00
2023-05-31T11:18:47.839Z,715.00
2023-05-31T11:19:47.874Z,697.00
2023-05-31T11:20:47.910Z,675.00
2023-05-31T11:21:47.912Z,665.00
2023-05-31T11:22:47.949Z,661.00
2023-05-31T11:23:47.969Z,635.00
2023-05-31T11:24:47.932Z,635.00
2023-05-31T11:25:48.038Z,626.00
2023-05-31T11:26:47.873Z,621.00
2023-05-31T11:27:47.846Z,622.00
2023-05-31T11:28:47.816Z,620.00
2023-05-31T11:29:47.793Z,608.00
2023-05-31T11:30:47.751Z,597.00
2023-05-31T11:31:47.789Z,598.00
2023-05-31T11:32:47.754Z,601.00
2023-05-31T11:33:58.094Z,589.00
2023-05-31T11:34:48.705Z,590.00
2023-05-31T11:35:47.654Z,589.00
2023-05-31T11:36:47.644Z,584.00
2023-05-31T11:37:47.595Z,585.00
2023-05-31T11:38:47.553Z,573.00
2023-05-31T11:39:47.532Z,578.00
2023-05-31T11:40:47.501Z,577.00
2023-05-31T11:41:47.468Z,563.00
2023-05-31T11:42:47.534Z,544.00
2023-05-31T11:43:47.470Z,544.00
2023-05-31T11:44:47.451Z,544.00
2023-05-31T11:45:47.433Z,534.00
2023-05-31T11:46:47.412Z,540.00
2023-05-31T11:47:47.408Z,531.00
2023-05-31T11:48:47.293Z,524.00
2023-05-31T11:49:47.257Z,516.00
2023-05-31T11:50:47.249Z,512.00
2023-05-31T11:51:47.367Z,501.00
2023-05-31T11:52:47.338Z,501.00
2023-05-31T11:53:47.359Z,501.00
2023-05-31T11:54:47.421Z,503.00
2023-05-31T11:55:47.446Z,501.00
2023-05-31T11:56:47.448Z,500.00
2023-05-31T11:57:47.476Z,502.00
2023-05-31T11:58:47.520Z,500.00
2023-05-31T11:59:47.498Z,504.00
2023-05-31T12:00:47.474Z,497.00
2023-05-31T12:01:47.433Z,487.00
2023-05-31T12:02:47.490Z,475.00
2023-05-31T12:03:47.468Z,471.00
2023-05-31T12:04:47.417Z,466.00
2023-05-31T12:05:47.336Z,500.00
2023-05-31T12:06:47.276Z,501.00
2023-05-31T12:07:47.310Z,500.00
2023-05-31T12:08:47.203Z,503.00
2023-05-31T12:09:47.175Z,502.00
2023-05-31T12:10:47.191Z,500.00
2023-05-31T12:11:47.147Z,500.00
2023-05-31T12:12:47.115Z,500.00
2023-05-31T12:13:47.087Z,493.00
2023-05-31T12:14:47.077Z,490.00
2023-05-31T12:15:47.070Z,493.00
2023-05-31T12:16:46.996Z,495.00
2023-05-31T12:17:47.007Z,500.00
2023-05-31T12:18:46.948Z,502.00
2023-05-31T12:19:46.899Z,502.00
2023-05-31T12:20:46.896Z,500.00